Meath Environmental Platform

Observations for Trim Patrick St

Time AQI Temp °C Hum % Pres Pa CO μg/m³ H₂S μg/m³ NO μg/m³ NO₂ μg/m³ O₃ μg/m³ SO₂ μg/m³ PM1 μg/m³ PM2.5 μg/m³ PM10 μg/m³
Monday 3 August 2026
15:20 3 32.3 32 69,351 0 0 1.46 25.84 117.99 11.8 3.71 9.98 10.98
15:19 3 32.3 32 69,357 0 0 1.44 23.63 138.71 12.96 5.43 12.35 13.58
15:18 3 32.2 32 69,369 0 0 1.45 17.47 140.46 13.66 5.43 10.74 11.81
15:17 3 32.2 34 69,385 0 0 1.59 13.08 79.61 12.63 4.57 11.44 12.58
15:16 3 32.2 32 69,375 0 0 1.5 21.22 121.07 12.95 5.43 11.52 12.67
15:15 3 32.1 33 69,363 0 0 1.52 27.89 168.95 13.02 3.71 10.68 11.75
15:14 3 32 33 69,345 0 0 1.62 14.41 123.92 13.2 5.43 11.46 12.61
15:13 3 32 33 69,353 0 0 1.56 19.13 129.39 12.01 3.71 9.89 10.88
15:12 3 32 32 69,361 0 0 1.5 14.12 96.14 12.99 4.57 11.58 12.74
15:11 3 31.9 33 69,373 0 0 1.54 16.75 93.88 12.14 5.43 12.3 13.53
15:10 3 31.9 33 69,391 0 0 1.63 17.23 88.5 12.1 5.43 11.49 12.64
15:09 3 31.9 34 69,379 0 0 1.67 23.02 122.79 12.49 4.57 11.41 12.55
15:08 3 31.8 34 69,369 0 0 1.71 18.6 99.08 12.35 5.43 12.99 14.29
15:07 3 31.8 34 69,353 0 0 1.63 23.23 101.9 11.05 5.43 13.03 14.34
15:06 3 31.8 34 69,336 0 0 1.7 27.71 111.37 13.12 4.57 11.38 12.52
15:05 3 31.7 33 69,339 0 0 1.54 24.9 154.24 12.09 5.43 11.47 12.61
15:04 3 31.7 34 69,345 0 0 1.54 20.55 106.28 12.21 5.43 12.18 13.39
15:03 3 31.6 33 69,328 0 0 1.42 21.65 114.51 12.79 4.57 9.86 10.85
15:02 3 31.6 33 69,300 0 0 1.39 28.27 154.59 12.44 5.43 12.25 13.48
15:01 3 31.5 34 69,290 0 0 1.44 21.62 134.11 11.09 3.71 10.63 11.69